^^
Station Historical Data
Daily Summary for February 9, 2017 Units:  Metric    English   Both
« Previous Day
Next Day »
Daily Weekly Monthly Yearly Custom
  High: Low: Average:
Temperature: 36.9 °C 22.4 °C 27.4 °C
Dew Point: 20.9 °C 10.2 °C 14 °C
Humidity: 77% 30% 45%
Wind Speed: 20.9km/h 0km/h 2.7km/h
Wind Gust: 29km/h - -
Wind- - West
Pressure: 1008.4 hPa 1005.3 hPa -
Precipitation: 3.3 mm    
Historical Graphs
 
 
Tabular Data for February 9, 2017
Time Temperature Dew Point Pressure Wind Wind Speed Wind Gust Humidity Rainfall Rate (Hourly) solar Conditions
00:24 26.1 °C 10.7 °C 1007.3 hPa SSW 11.1 km/h 16.1 km/h 38% 0 mm 0.0 W/m2
00:28 26.1 °C 10.7 °C 1008.4 hPa NNW 20.9 km/h 20.9 km/h 38% 0 mm 0.0 W/m2
01:05 25.9 °C 10.5 °C 1007.7 hPa SW 4.7 km/h 11.3 km/h 38% 0 mm 0.0 W/m2
01:10 25.8 °C 10.4 °C 1008 hPa SW 6.4 km/h 9.7 km/h 38% 0 mm 0.0 W/m2
01:15 25.8 °C 10.4 °C 1007.7 hPa SW 9.7 km/h 11.3 km/h 38% 0 mm 0.0 W/m2
01:20 25.7 °C 10.3 °C 1007.7 hPa SW 9.7 km/h 14.5 km/h 38% 0 mm 0.0 W/m2
01:25 25.6 °C 10.2 °C 1007.7 hPa SW 7.9 km/h 11.3 km/h 38% 0 mm 0.0 W/m2
01:30 25.4 °C 10.4 °C 1007.7 hPa SW 11.1 km/h 12.9 km/h 39% 0 mm 0.0 W/m2
01:39 25.3 °C 10.3 °C 1008 hPa SW 3.2 km/h 8 km/h 39% 0 mm 0.0 W/m2
01:40 25.3 °C 10.3 °C 1008 hPa SW 6.4 km/h 8 km/h 39% 0 mm 0.0 W/m2
02:26 25.1 °C 10.6 °C 1008 hPa Calm     40% 0 mm 0.0 W/m2
02:31 24.9 °C 10.4 °C 1007.7 hPa Calm     40% 0 mm 0.0 W/m2
03:29 24.2 °C 10.5 °C 1007.3 hPa Calm     42% 0 mm 0.0 W/m2
03:33 24.2 °C 10.5 °C 1007.3 hPa Calm     42% 0 mm 0.0 W/m2
03:38 24.1 °C 10.4 °C 1007.3 hPa Calm     42% 0 mm 0.0 W/m2
04:47 23.4 °C 11.1 °C 1006.7 hPa Calm     46% 0 mm 0.0 W/m2
04:58 23.2 °C 10.6 °C 1006.7 hPa Calm     45% 0 mm 0.0 W/m2
05:14 23.1 °C 10.8 °C 1006.7 hPa Calm     46% 0 mm 0.0 W/m2
05:19 23.1 °C 10.8 °C 1006.7 hPa Calm     46% 0 mm 0.0 W/m2
05:24 23.1 °C 10.8 °C 1006.7 hPa Calm     46% 0 mm 0.0 W/m2
05:29 23.1 °C 10.8 °C 1006.7 hPa Calm     46% 0 mm 0.0 W/m2
05:34 23 °C 11.1 °C 1006.7 hPa Calm     47% 0 mm 0.0 W/m2
05:44 22.8 °C 11.2 °C 1006.7 hPa Calm     48% 0 mm 0.0 W/m2
05:49 22.7 °C 11.1 °C 1006.7 hPa Calm     48% 0 mm 0.0 W/m2
05:54 22.6 °C 11 °C 1006.7 hPa Calm     48% 0 mm 0.0 W/m2
05:58 22.6 °C 11.6 °C 1006.7 hPa Calm     50% 0 mm 0.0 W/m2
06:06 22.5 °C 11.3 °C 1006.3 hPa Calm     49% 0 mm 0.0 W/m2
06:12 22.4 °C 11.2 °C 1006.3 hPa Calm     49% 0 mm 0.0 W/m2
06:25 22.6 °C 11.3 °C 1006.7 hPa Calm     49% 0 mm 0.0 W/m2
06:40 23 °C 11.7 °C 1006.7 hPa Calm     49% 0 mm 7.0 W/m2
06:56 23 °C 11.7 °C 1007 hPa Calm     49% 0 mm 19.0 W/m2
07:11 23.9 °C 12.5 °C 1007.3 hPa Calm     49% 0 mm 58.0 W/m2
07:20 25.2 °C 12.8 °C 1007.3 hPa Calm     46% 0 mm 113.0 W/m2
07:36 26.7 °C 13.4 °C 1007.7 hPa Calm     44% 0 mm 179.0 W/m2
07:57 27.2 °C 13.2 °C 1007.7 hPa Calm     42% 0 mm 241.0 W/m2
08:06 27.2 °C 13.9 °C 1007.3 hPa Calm     44% 0 mm 278.0 W/m2
08:17 27.1 °C 13.4 °C 1007.3 hPa Calm     43% 0 mm 316.0 W/m2
08:29 27.3 °C 13.6 °C 1007.3 hPa Calm     43% 0 mm 352.0 W/m2
08:37 27.7 °C 13.3 °C 1007.7 hPa Calm     41% 0 mm 406.0 W/m2
08:54 28.1 °C 13.6 °C 1007.3 hPa Calm     41% 0 mm 438.0 W/m2
08:58 28.5 °C 14.7 °C 1007.3 hPa Calm     43% 0 mm 473.0 W/m2
09:13 29.3 °C 16.1 °C 1007.3 hPa Calm     45% 0 mm 527.0 W/m2
09:29 30.1 °C 15.8 °C 1007.3 hPa Calm     42% 0 mm 584.0 W/m2
09:51 30.9 °C 16.1 °C 1007.3 hPa Calm     41% 0 mm 701.0 W/m2
09:59 31.9 °C 15.8 °C 1007.3 hPa Calm     38% 0 mm 791.0 W/m2
10:15 32.2 °C 14.8 °C 1007.3 hPa Calm     35% 0 mm 759.0 W/m2
10:26 32.6 °C 15.1 °C 1007.3 hPa Calm     35% 0 mm 772.0 W/m2
10:42 33.6 °C 15.1 °C 1007.3 hPa Calm     33% 0 mm 796.0 W/m2
10:57 33.2 °C 15.2 °C 1007 hPa SW 1.4 km/h 3.2 km/h 34% 0 mm 812.0 W/m2
11:07 33.3 °C 15.8 °C 1007 hPa Calm     35% 0 mm 831.0 W/m2
11:29 33.7 °C 16.6 °C 1007 hPa Calm   16.1 km/h 36% 0 mm 858.0 W/m2
11:37 34.2 °C 16.5 °C 1006.7 hPa WNW 19.5 km/h 20.9 km/h 35% 0 mm 882.0 W/m2
11:57 34 °C 16.8 °C 1006.3 hPa WNW 13 km/h 13 km/h 36% 0 mm 904.0 W/m2
12:03 34.5 °C 16.8 °C 1006.7 hPa NW 9.7 km/h 14.5 km/h 35% 0 mm 918.0 W/m2
12:18 34.8 °C 16.6 °C 1006.3 hPa NW 13 km/h 17.7 km/h 34% 0 mm 933.0 W/m2
12:28 34.9 °C 17.2 °C 1006.3 hPa NW 13 km/h 29 km/h 35% 0 mm 940.0 W/m2
12:49 35.4 °C 16.7 °C 1006 hPa Calm     33% 0 mm 956.0 W/m2
13:05 36.2 °C 16.9 °C 1005.6 hPa NW 19.5 km/h 24.1 km/h 32% 0 mm 1088.0 W/m2
13:20 36.4 °C 16.6 °C 1005.6 hPa NNW 11.1 km/h 22.5 km/h 31% 0 mm 1058.0 W/m2
13:33 36.9 °C 16.5 °C 1005.3 hPa Calm   14.5 km/h 30% 0 mm 960.0 W/m2
13:41 36.8 °C 16.4 °C 1005.3 hPa NNW 9.7 km/h 19.3 km/h 30% 0 mm 958.0 W/m2
21:03 27.3 °C 17.2 °C 1006 hPa Calm     54% 0 mm 0.0 W/m2
21:17 26.9 °C 17.9 °C 1006.3 hPa Calm   8 km/h 58% 0 mm 0.0 W/m2
21:26 26.8 °C 17.6 °C 1006 hPa Calm     57% 0 mm 0.0 W/m2
21:33 26.3 °C 17.6 °C 1006 hPa Calm     59% 0 mm 0.0 W/m2
21:48 26 °C 19.2 °C 1005.6 hPa Calm     66% 0 mm 0.0 W/m2
21:57 25.6 °C 19.5 °C 1005.6 hPa Calm     69% 0 mm 0.0 W/m2
22:06 25.3 °C 19 °C 1006 hPa Calm     68% 0 mm 0.0 W/m2
22:11 25.3 °C 19 °C 1006 hPa Calm     68% 0 mm 0.0 W/m2
23:32 25.2 °C 20.2 °C 1007.7 hPa Calm     74% 0 mm 0.0 W/m2
23:37 25.3 °C 20.3 °C 1007.7 hPa Calm     74% 0 mm 0.0 W/m2
23:47 25.2 °C 20.9 °C 1007.7 hPa Calm     77% 0 mm 0.0 W/m2
23:58 25.1 °C 20.6 °C 1007.7 hPa Calm     76% 0 mm 0.0 W/m2
Canyon Roadhouse, Fishriver Canyon, Namibia
Compliments of Weather Underground - 2 mb